sensor_id;sensor_type;location;lat;lon;timestamp;P1;durP1;ratioP1;P2;durP2;ratioP2
4049;SDS011;2039;50.894;6.888;2022-08-19T00:01:56;73.97;;;16.53;;
4049;SDS011;2039;50.894;6.888;2022-08-19T00:04:24;79.50;;;16.23;;
4049;SDS011;2039;50.894;6.888;2022-08-19T00:06:57;73.07;;;14.83;;
4049;SDS011;2039;50.894;6.888;2022-08-19T00:09:24;77.03;;;15.60;;
4049;SDS011;2039;50.894;6.888;2022-08-19T00:11:51;75.07;;;16.83;;
4049;SDS011;2039;50.894;6.888;2022-08-19T00:14:20;75.57;;;16.00;;
4049;SDS011;2039;50.894;6.888;2022-08-19T00:16:47;74.87;;;15.90;;
4049;SDS011;2039;50.894;6.888;2022-08-19T00:19:14;73.30;;;15.27;;
4049;SDS011;2039;50.894;6.888;2022-08-19T00:21:40;74.87;;;15.10;;
4049;SDS011;2039;50.894;6.888;2022-08-19T00:24:07;75.30;;;15.73;;
4049;SDS011;2039;50.894;6.888;2022-08-19T00:26:38;76.30;;;16.07;;
4049;SDS011;2039;50.894;6.888;2022-08-19T00:29:04;74.83;;;16.57;;
4049;SDS011;2039;50.894;6.888;2022-08-19T00:31:32;72.80;;;15.60;;
4049;SDS011;2039;50.894;6.888;2022-08-19T00:33:58;72.87;;;16.20;;
4049;SDS011;2039;50.894;6.888;2022-08-19T00:36:24;75.07;;;15.53;;
4049;SDS011;2039;50.894;6.888;2022-08-19T00:38:49;78.07;;;18.30;;
4049;SDS011;2039;50.894;6.888;2022-08-19T00:41:17;77.90;;;16.83;;
4049;SDS011;2039;50.894;6.888;2022-08-19T00:46:31;78.27;;;14.90;;
4049;SDS011;2039;50.894;6.888;2022-08-19T00:48:58;77.30;;;14.90;;
4049;SDS011;2039;50.894;6.888;2022-08-19T00:51:26;77.07;;;16.23;;
4049;SDS011;2039;50.894;6.888;2022-08-19T00:53:55;76.07;;;15.43;;
4049;SDS011;2039;50.894;6.888;2022-08-19T00:56:23;75.10;;;16.17;;
4049;SDS011;2039;50.894;6.888;2022-08-19T00:58:51;76.77;;;16.00;;
4049;SDS011;2039;50.894;6.888;2022-08-19T01:01:19;75.00;;;16.03;;
4049;SDS011;2039;50.894;6.888;2022-08-19T01:03:44;77.97;;;15.60;;
4049;SDS011;2039;50.894;6.888;2022-08-19T01:06:10;76.87;;;15.43;;
4049;SDS011;2039;50.894;6.888;2022-08-19T01:08:36;76.40;;;16.13;;
4049;SDS011;2039;50.894;6.888;2022-08-19T01:11:02;76.13;;;16.37;;
4049;SDS011;2039;50.894;6.888;2022-08-19T01:13:30;75.40;;;16.63;;
4049;SDS011;2039;50.894;6.888;2022-08-19T01:16:01;81.63;;;15.83;;
4049;SDS011;2039;50.894;6.888;2022-08-19T01:18:35;75.10;;;14.43;;
4049;SDS011;2039;50.894;6.888;2022-08-19T01:23:59;76.10;;;15.97;;
4049;SDS011;2039;50.894;6.888;2022-08-19T01:26:26;76.70;;;16.43;;
4049;SDS011;2039;50.894;6.888;2022-08-19T01:28:54;73.97;;;16.37;;
4049;SDS011;2039;50.894;6.888;2022-08-19T01:31:26;76.30;;;15.83;;
4049;SDS011;2039;50.894;6.888;2022-08-19T01:33:55;78.37;;;15.70;;
4049;SDS011;2039;50.894;6.888;2022-08-19T01:36:27;75.83;;;15.77;;
4049;SDS011;2039;50.894;6.888;2022-08-19T01:39:00;74.77;;;15.30;;
4049;SDS011;2039;50.894;6.888;2022-08-19T01:41:28;75.80;;;16.17;;
4049;SDS011;2039;50.894;6.888;2022-08-19T01:43:54;79.70;;;19.07;;
4049;SDS011;2039;50.894;6.888;2022-08-19T01:46:21;75.97;;;18.97;;
4049;SDS011;2039;50.894;6.888;2022-08-19T01:48:47;77.00;;;17.37;;
4049;SDS011;2039;50.894;6.888;2022-08-19T01:51:13;76.07;;;17.30;;
4049;SDS011;2039;50.894;6.888;2022-08-19T01:53:39;82.63;;;18.97;;
4049;SDS011;2039;50.894;6.888;2022-08-19T01:56:06;82.57;;;16.47;;
4049;SDS011;2039;50.894;6.888;2022-08-19T01:58:34;85.90;;;16.70;;
4049;SDS011;2039;50.894;6.888;2022-08-19T02:01:04;73.93;;;15.60;;
4049;SDS011;2039;50.894;6.888;2022-08-19T02:03:31;78.93;;;17.60;;
4049;SDS011;2039;50.894;6.888;2022-08-19T02:05:58;86.07;;;17.40;;
4049;SDS011;2039;50.894;6.888;2022-08-19T02:08:29;79.17;;;18.77;;
4049;SDS011;2039;50.894;6.888;2022-08-19T02:10:55;75.40;;;17.20;;
4049;SDS011;2039;50.894;6.888;2022-08-19T02:13:22;77.70;;;17.53;;
4049;SDS011;2039;50.894;6.888;2022-08-19T02:15:48;77.60;;;16.50;;
4049;SDS011;2039;50.894;6.888;2022-08-19T02:18:14;78.77;;;20.27;;
4049;SDS011;2039;50.894;6.888;2022-08-19T02:20:41;75.90;;;17.57;;
4049;SDS011;2039;50.894;6.888;2022-08-19T02:23:08;75.10;;;17.40;;
4049;SDS011;2039;50.894;6.888;2022-08-19T02:25:36;81.23;;;19.07;;
4049;SDS011;2039;50.894;6.888;2022-08-19T02:28:02;79.10;;;19.30;;
4049;SDS011;2039;50.894;6.888;2022-08-19T02:30:27;75.77;;;17.20;;
4049;SDS011;2039;50.894;6.888;2022-08-19T02:32:53;77.60;;;18.97;;
4049;SDS011;2039;50.894;6.888;2022-08-19T02:35:19;77.63;;;20.17;;
4049;SDS011;2039;50.894;6.888;2022-08-19T02:37:45;76.27;;;20.37;;
4049;SDS011;2039;50.894;6.888;2022-08-19T02:40:30;79.07;;;18.80;;
4049;SDS011;2039;50.894;6.888;2022-08-19T02:43:00;77.00;;;19.93;;
4049;SDS011;2039;50.894;6.888;2022-08-19T02:45:27;77.30;;;20.27;;
4049;SDS011;2039;50.894;6.888;2022-08-19T02:47:58;78.60;;;19.27;;
4049;SDS011;2039;50.894;6.888;2022-08-19T02:50:23;77.27;;;20.60;;
4049;SDS011;2039;50.894;6.888;2022-08-19T02:52:49;79.57;;;22.03;;
4049;SDS011;2039;50.894;6.888;2022-08-19T02:55:15;83.80;;;20.83;;
4049;SDS011;2039;50.894;6.888;2022-08-19T02:57:41;78.00;;;20.87;;
4049;SDS011;2039;50.894;6.888;2022-08-19T03:00:07;76.13;;;19.87;;
4049;SDS011;2039;50.894;6.888;2022-08-19T03:02:37;78.27;;;20.23;;
4049;SDS011;2039;50.894;6.888;2022-08-19T03:05:03;77.17;;;18.57;;
4049;SDS011;2039;50.894;6.888;2022-08-19T03:07:30;78.23;;;19.53;;
4049;SDS011;2039;50.894;6.888;2022-08-19T03:09:56;76.90;;;18.80;;
4049;SDS011;2039;50.894;6.888;2022-08-19T03:12:21;77.07;;;20.20;;
4049;SDS011;2039;50.894;6.888;2022-08-19T03:14:47;80.37;;;18.37;;
4049;SDS011;2039;50.894;6.888;2022-08-19T03:17:13;79.50;;;19.00;;
4049;SDS011;2039;50.894;6.888;2022-08-19T03:19:39;80.07;;;18.87;;
4049;SDS011;2039;50.894;6.888;2022-08-19T03:22:05;79.50;;;18.60;;
4049;SDS011;2039;50.894;6.888;2022-08-19T03:24:31;76.07;;;17.17;;
4049;SDS011;2039;50.894;6.888;2022-08-19T03:26:57;77.00;;;16.73;;
4049;SDS011;2039;50.894;6.888;2022-08-19T03:29:24;79.37;;;18.83;;
4049;SDS011;2039;50.894;6.888;2022-08-19T03:31:52;77.17;;;18.33;;
4049;SDS011;2039;50.894;6.888;2022-08-19T03:34:23;80.33;;;18.80;;
4049;SDS011;2039;50.894;6.888;2022-08-19T03:36:51;81.93;;;19.80;;
4049;SDS011;2039;50.894;6.888;2022-08-19T03:39:19;76.80;;;18.30;;
4049;SDS011;2039;50.894;6.888;2022-08-19T03:41:47;77.17;;;17.03;;
4049;SDS011;2039;50.894;6.888;2022-08-19T03:44:16;79.87;;;17.73;;
4049;SDS011;2039;50.894;6.888;2022-08-19T03:46:46;77.40;;;18.23;;
4049;SDS011;2039;50.894;6.888;2022-08-19T03:49:13;79.43;;;16.67;;
4049;SDS011;2039;50.894;6.888;2022-08-19T03:51:39;78.37;;;17.30;;
4049;SDS011;2039;50.894;6.888;2022-08-19T03:54:07;79.30;;;17.37;;
4049;SDS011;2039;50.894;6.888;2022-08-19T03:56:35;79.37;;;16.40;;
4049;SDS011;2039;50.894;6.888;2022-08-19T03:59:02;83.23;;;17.97;;
4049;SDS011;2039;50.894;6.888;2022-08-19T04:01:29;86.17;;;21.30;;
4049;SDS011;2039;50.894;6.888;2022-08-19T04:03:55;82.53;;;18.27;;
4049;SDS011;2039;50.894;6.888;2022-08-19T04:06:23;79.20;;;18.30;;
4049;SDS011;2039;50.894;6.888;2022-08-19T04:08:54;80.57;;;19.20;;
4049;SDS011;2039;50.894;6.888;2022-08-19T04:11:21;81.07;;;18.50;;
4049;SDS011;2039;50.894;6.888;2022-08-19T04:13:52;79.07;;;16.80;;
4049;SDS011;2039;50.894;6.888;2022-08-19T04:16:19;84.13;;;19.23;;
4049;SDS011;2039;50.894;6.888;2022-08-19T04:18:47;84.77;;;17.67;;
4049;SDS011;2039;50.894;6.888;2022-08-19T04:21:17;80.33;;;18.30;;
4049;SDS011;2039;50.894;6.888;2022-08-19T04:23:45;89.60;;;18.77;;
4049;SDS011;2039;50.894;6.888;2022-08-19T04:26:15;80.67;;;18.73;;
4049;SDS011;2039;50.894;6.888;2022-08-19T04:28:44;82.80;;;20.13;;
4049;SDS011;2039;50.894;6.888;2022-08-19T04:31:15;79.27;;;19.60;;
4049;SDS011;2039;50.894;6.888;2022-08-19T04:33:42;79.17;;;17.53;;
4049;SDS011;2039;50.894;6.888;2022-08-19T04:36:08;85.13;;;18.70;;
4049;SDS011;2039;50.894;6.888;2022-08-19T04:38:49;80.80;;;19.07;;
4049;SDS011;2039;50.894;6.888;2022-08-19T04:41:17;78.80;;;17.90;;
4049;SDS011;2039;50.894;6.888;2022-08-19T04:44:01;82.10;;;18.20;;
4049;SDS011;2039;50.894;6.888;2022-08-19T04:46:28;88.63;;;20.37;;
4049;SDS011;2039;50.894;6.888;2022-08-19T04:48:57;80.67;;;18.80;;
4049;SDS011;2039;50.894;6.888;2022-08-19T04:51:27;84.50;;;18.77;;
4049;SDS011;2039;50.894;6.888;2022-08-19T04:53:56;82.10;;;19.30;;
4049;SDS011;2039;50.894;6.888;2022-08-19T04:56:22;80.90;;;19.27;;
4049;SDS011;2039;50.894;6.888;2022-08-19T04:58:51;83.33;;;20.80;;
4049;SDS011;2039;50.894;6.888;2022-08-19T05:01:19;82.07;;;21.80;;
4049;SDS011;2039;50.894;6.888;2022-08-19T05:03:48;83.67;;;21.93;;
4049;SDS011;2039;50.894;6.888;2022-08-19T05:06:14;83.50;;;23.00;;
4049;SDS011;2039;50.894;6.888;2022-08-19T05:08:42;87.60;;;26.23;;
4049;SDS011;2039;50.894;6.888;2022-08-19T05:11:13;86.80;;;24.03;;
4049;SDS011;2039;50.894;6.888;2022-08-19T05:13:39;87.57;;;24.57;;
4049;SDS011;2039;50.894;6.888;2022-08-19T05:16:06;86.67;;;24.83;;
4049;SDS011;2039;50.894;6.888;2022-08-19T05:18:32;94.87;;;26.07;;
4049;SDS011;2039;50.894;6.888;2022-08-19T05:21:17;88.17;;;26.10;;
4049;SDS011;2039;50.894;6.888;2022-08-19T05:24:03;92.93;;;28.50;;
4049;SDS011;2039;50.894;6.888;2022-08-19T05:26:37;91.67;;;31.33;;
4049;SDS011;2039;50.894;6.888;2022-08-19T05:29:08;94.10;;;30.67;;
4049;SDS011;2039;50.894;6.888;2022-08-19T05:31:35;90.60;;;30.50;;
4049;SDS011;2039;50.894;6.888;2022-08-19T05:34:02;101.70;;;29.03;;
4049;SDS011;2039;50.894;6.888;2022-08-19T05:36:32;97.50;;;29.40;;
4049;SDS011;2039;50.894;6.888;2022-08-19T05:39:01;96.00;;;31.03;;
4049;SDS011;2039;50.894;6.888;2022-08-19T05:41:27;90.77;;;29.13;;
4049;SDS011;2039;50.894;6.888;2022-08-19T05:43:54;94.87;;;30.17;;
4049;SDS011;2039;50.894;6.888;2022-08-19T05:46:20;98.53;;;28.17;;
4049;SDS011;2039;50.894;6.888;2022-08-19T05:48:47;89.10;;;27.10;;
4049;SDS011;2039;50.894;6.888;2022-08-19T05:51:13;100.30;;;31.73;;
4049;SDS011;2039;50.894;6.888;2022-08-19T05:53:40;95.10;;;30.00;;
4049;SDS011;2039;50.894;6.888;2022-08-19T05:56:06;94.90;;;32.53;;
4049;SDS011;2039;50.894;6.888;2022-08-19T05:58:34;90.70;;;27.33;;
4049;SDS011;2039;50.894;6.888;2022-08-19T06:01:01;91.70;;;29.30;;
4049;SDS011;2039;50.894;6.888;2022-08-19T06:03:33;100.80;;;32.10;;
4049;SDS011;2039;50.894;6.888;2022-08-19T06:05:59;94.70;;;31.13;;
4049;SDS011;2039;50.894;6.888;2022-08-19T06:08:26;93.13;;;29.63;;
4049;SDS011;2039;50.894;6.888;2022-08-19T06:10:52;91.37;;;27.07;;
4049;SDS011;2039;50.894;6.888;2022-08-19T06:13:18;100.03;;;32.97;;
4049;SDS011;2039;50.894;6.888;2022-08-19T06:15:44;99.37;;;30.37;;
4049;SDS011;2039;50.894;6.888;2022-08-19T06:18:11;98.80;;;30.13;;
4049;SDS011;2039;50.894;6.888;2022-08-19T06:20:38;99.37;;;34.73;;
4049;SDS011;2039;50.894;6.888;2022-08-19T06:23:05;100.07;;;37.20;;
4049;SDS011;2039;50.894;6.888;2022-08-19T06:25:31;99.17;;;35.23;;
4049;SDS011;2039;50.894;6.888;2022-08-19T06:27:56;104.50;;;39.13;;
4049;SDS011;2039;50.894;6.888;2022-08-19T06:30:22;105.23;;;38.20;;
4049;SDS011;2039;50.894;6.888;2022-08-19T06:32:48;100.63;;;36.77;;
4049;SDS011;2039;50.894;6.888;2022-08-19T06:35:14;100.20;;;38.57;;
4049;SDS011;2039;50.894;6.888;2022-08-19T06:37:41;102.40;;;35.87;;
4049;SDS011;2039;50.894;6.888;2022-08-19T06:40:07;104.37;;;41.30;;
4049;SDS011;2039;50.894;6.888;2022-08-19T06:42:35;105.27;;;39.77;;
4049;SDS011;2039;50.894;6.888;2022-08-19T06:45:04;107.73;;;43.07;;
4049;SDS011;2039;50.894;6.888;2022-08-19T06:47:33;103.00;;;39.10;;
4049;SDS011;2039;50.894;6.888;2022-08-19T06:49:59;107.90;;;42.67;;
4049;SDS011;2039;50.894;6.888;2022-08-19T06:52:28;106.77;;;40.20;;
4049;SDS011;2039;50.894;6.888;2022-08-19T06:54:55;109.10;;;42.37;;
4049;SDS011;2039;50.894;6.888;2022-08-19T06:57:21;106.40;;;37.63;;
4049;SDS011;2039;50.894;6.888;2022-08-19T06:59:50;106.40;;;40.10;;
4049;SDS011;2039;50.894;6.888;2022-08-19T07:02:16;101.63;;;38.97;;
4049;SDS011;2039;50.894;6.888;2022-08-19T07:04:42;105.33;;;39.67;;
4049;SDS011;2039;50.894;6.888;2022-08-19T07:07:10;102.37;;;37.63;;
4049;SDS011;2039;50.894;6.888;2022-08-19T07:09:40;106.47;;;40.57;;
4049;SDS011;2039;50.894;6.888;2022-08-19T07:12:08;103.83;;;42.57;;
4049;SDS011;2039;50.894;6.888;2022-08-19T07:14:35;113.50;;;42.23;;
4049;SDS011;2039;50.894;6.888;2022-08-19T07:17:02;105.50;;;39.57;;
4049;SDS011;2039;50.894;6.888;2022-08-19T07:19:30;106.50;;;38.80;;
4049;SDS011;2039;50.894;6.888;2022-08-19T07:21:56;108.37;;;39.20;;
4049;SDS011;2039;50.894;6.888;2022-08-19T07:24:23;106.60;;;41.17;;
4049;SDS011;2039;50.894;6.888;2022-08-19T07:26:50;110.50;;;42.60;;
4049;SDS011;2039;50.894;6.888;2022-08-19T07:29:17;112.77;;;45.40;;
4049;SDS011;2039;50.894;6.888;2022-08-19T07:31:44;109.07;;;42.13;;
4049;SDS011;2039;50.894;6.888;2022-08-19T07:34:10;107.70;;;44.27;;
4049;SDS011;2039;50.894;6.888;2022-08-19T07:36:39;110.57;;;43.80;;
4049;SDS011;2039;50.894;6.888;2022-08-19T07:39:08;110.13;;;42.47;;
4049;SDS011;2039;50.894;6.888;2022-08-19T07:41:36;113.27;;;48.00;;
4049;SDS011;2039;50.894;6.888;2022-08-19T07:44:04;106.63;;;39.60;;
4049;SDS011;2039;50.894;6.888;2022-08-19T07:46:36;110.37;;;46.03;;
4049;SDS011;2039;50.894;6.888;2022-08-19T07:49:04;115.50;;;43.17;;
4049;SDS011;2039;50.894;6.888;2022-08-19T07:51:31;111.80;;;45.70;;
4049;SDS011;2039;50.894;6.888;2022-08-19T07:53:58;117.50;;;46.13;;
4049;SDS011;2039;50.894;6.888;2022-08-19T07:56:25;111.20;;;47.00;;
4049;SDS011;2039;50.894;6.888;2022-08-19T07:58:51;111.10;;;42.47;;
4049;SDS011;2039;50.894;6.888;2022-08-19T08:01:19;115.90;;;43.77;;
4049;SDS011;2039;50.894;6.888;2022-08-19T08:03:48;108.57;;;40.87;;
4049;SDS011;2039;50.894;6.888;2022-08-19T08:06:33;113.30;;;41.13;;
4049;SDS011;2039;50.894;6.888;2022-08-19T08:09:29;109.07;;;39.80;;
4049;SDS011;2039;50.894;6.888;2022-08-19T08:12:04;109.53;;;40.90;;
4049;SDS011;2039;50.894;6.888;2022-08-19T08:14:34;107.40;;;36.53;;
4049;SDS011;2039;50.894;6.888;2022-08-19T08:17:03;112.77;;;38.30;;
4049;SDS011;2039;50.894;6.888;2022-08-19T08:19:30;114.10;;;36.17;;
4049;SDS011;2039;50.894;6.888;2022-08-19T08:21:57;107.73;;;34.17;;
4049;SDS011;2039;50.894;6.888;2022-08-19T08:24:25;111.33;;;35.07;;
4049;SDS011;2039;50.894;6.888;2022-08-19T08:26:52;110.73;;;33.60;;
4049;SDS011;2039;50.894;6.888;2022-08-19T08:29:18;113.90;;;35.10;;
4049;SDS011;2039;50.894;6.888;2022-08-19T08:31:44;114.90;;;34.80;;
4049;SDS011;2039;50.894;6.888;2022-08-19T08:34:11;108.80;;;34.43;;
4049;SDS011;2039;50.894;6.888;2022-08-19T08:36:39;109.27;;;33.77;;
4049;SDS011;2039;50.894;6.888;2022-08-19T08:39:11;114.67;;;32.93;;
4049;SDS011;2039;50.894;6.888;2022-08-19T08:41:43;116.00;;;31.50;;
4049;SDS011;2039;50.894;6.888;2022-08-19T08:44:31;111.67;;;31.77;;
4049;SDS011;2039;50.894;6.888;2022-08-19T08:47:13;110.93;;;31.00;;
4049;SDS011;2039;50.894;6.888;2022-08-19T08:49:50;118.03;;;34.60;;
4049;SDS011;2039;50.894;6.888;2022-08-19T08:52:28;113.87;;;31.07;;
4049;SDS011;2039;50.894;6.888;2022-08-19T08:55:03;109.80;;;29.80;;
4049;SDS011;2039;50.894;6.888;2022-08-19T09:00:18;104.13;;;29.33;;
4049;SDS011;2039;50.894;6.888;2022-08-19T09:02:55;107.77;;;30.70;;
4049;SDS011;2039;50.894;6.888;2022-08-19T09:05:23;112.57;;;30.37;;
4049;SDS011;2039;50.894;6.888;2022-08-19T09:08:00;108.20;;;29.07;;
4049;SDS011;2039;50.894;6.888;2022-08-19T09:10:36;100.43;;;26.60;;
4049;SDS011;2039;50.894;6.888;2022-08-19T09:16:00;103.97;;;26.73;;
4049;SDS011;2039;50.894;6.888;2022-08-19T09:19:06;101.90;;;27.30;;
4049;SDS011;2039;50.894;6.888;2022-08-19T09:21:28;94.87;;;25.50;;
4049;SDS011;2039;50.894;6.888;2022-08-19T09:23:57;98.73;;;24.40;;
4049;SDS011;2039;50.894;6.888;2022-08-19T09:26:23;95.37;;;23.80;;
4049;SDS011;2039;50.894;6.888;2022-08-19T09:28:51;95.40;;;24.23;;
4049;SDS011;2039;50.894;6.888;2022-08-19T09:31:23;90.73;;;21.93;;
4049;SDS011;2039;50.894;6.888;2022-08-19T09:33:51;92.90;;;19.77;;
4049;SDS011;2039;50.894;6.888;2022-08-19T09:36:21;92.23;;;20.20;;
4049;SDS011;2039;50.894;6.888;2022-08-19T09:38:49;83.57;;;18.53;;
4049;SDS011;2039;50.894;6.888;2022-08-19T09:41:20;92.63;;;19.77;;
4049;SDS011;2039;50.894;6.888;2022-08-19T09:43:49;91.47;;;22.40;;
4049;SDS011;2039;50.894;6.888;2022-08-19T09:46:20;90.67;;;21.20;;
4049;SDS011;2039;50.894;6.888;2022-08-19T09:48:47;89.07;;;20.60;;
4049;SDS011;2039;50.894;6.888;2022-08-19T09:51:16;90.13;;;22.07;;
4049;SDS011;2039;50.894;6.888;2022-08-19T09:53:45;93.60;;;22.27;;
4049;SDS011;2039;50.894;6.888;2022-08-19T09:56:12;93.87;;;22.13;;
4049;SDS011;2039;50.894;6.888;2022-08-19T09:58:38;88.07;;;23.20;;
4049;SDS011;2039;50.894;6.888;2022-08-19T10:01:05;92.57;;;22.57;;
4049;SDS011;2039;50.894;6.888;2022-08-19T10:03:32;84.87;;;20.53;;
4049;SDS011;2039;50.894;6.888;2022-08-19T10:06:00;84.77;;;19.27;;
4049;SDS011;2039;50.894;6.888;2022-08-19T10:08:29;87.17;;;19.70;;
4049;SDS011;2039;50.894;6.888;2022-08-19T10:10:58;86.20;;;20.40;;
4049;SDS011;2039;50.894;6.888;2022-08-19T10:13:26;90.50;;;19.10;;
4049;SDS011;2039;50.894;6.888;2022-08-19T10:15:54;84.97;;;19.83;;
4049;SDS011;2039;50.894;6.888;2022-08-19T10:18:22;86.20;;;20.10;;
4049;SDS011;2039;50.894;6.888;2022-08-19T10:20:49;84.87;;;17.20;;
4049;SDS011;2039;50.894;6.888;2022-08-19T10:23:17;83.57;;;16.50;;
4049;SDS011;2039;50.894;6.888;2022-08-19T10:25:44;84.20;;;15.53;;
4049;SDS011;2039;50.894;6.888;2022-08-19T10:28:10;82.50;;;16.17;;
4049;SDS011;2039;50.894;6.888;2022-08-19T10:30:37;79.93;;;13.37;;
4049;SDS011;2039;50.894;6.888;2022-08-19T10:33:04;78.87;;;13.10;;
4049;SDS011;2039;50.894;6.888;2022-08-19T10:35:30;79.60;;;13.87;;
4049;SDS011;2039;50.894;6.888;2022-08-19T10:37:56;82.10;;;15.27;;
4049;SDS011;2039;50.894;6.888;2022-08-19T10:40:24;81.70;;;15.10;;
4049;SDS011;2039;50.894;6.888;2022-08-19T10:42:52;81.50;;;13.70;;
4049;SDS011;2039;50.894;6.888;2022-08-19T10:45:20;84.50;;;14.90;;
4049;SDS011;2039;50.894;6.888;2022-08-19T10:47:50;82.93;;;14.97;;
4049;SDS011;2039;50.894;6.888;2022-08-19T10:50:17;82.13;;;12.80;;
4049;SDS011;2039;50.894;6.888;2022-08-19T10:53:06;81.47;;;15.20;;
4049;SDS011;2039;50.894;6.888;2022-08-19T10:55:36;80.97;;;15.00;;
4049;SDS011;2039;50.894;6.888;2022-08-19T10:58:21;80.23;;;14.50;;
4049;SDS011;2039;50.894;6.888;2022-08-19T11:00:54;81.60;;;15.37;;
4049;SDS011;2039;50.894;6.888;2022-08-19T11:03:21;78.90;;;12.60;;
4049;SDS011;2039;50.894;6.888;2022-08-19T11:06:00;82.30;;;13.87;;
4049;SDS011;2039;50.894;6.888;2022-08-19T11:08:28;80.80;;;13.83;;
4049;SDS011;2039;50.894;6.888;2022-08-19T11:10:57;78.10;;;12.97;;
4049;SDS011;2039;50.894;6.888;2022-08-19T11:13:35;77.20;;;12.50;;
4049;SDS011;2039;50.894;6.888;2022-08-19T11:16:08;77.90;;;11.60;;
4049;SDS011;2039;50.894;6.888;2022-08-19T11:18:40;76.90;;;12.30;;
4049;SDS011;2039;50.894;6.888;2022-08-19T11:21:12;77.80;;;13.87;;
4049;SDS011;2039;50.894;6.888;2022-08-19T11:23:38;75.70;;;11.50;;
4049;SDS011;2039;50.894;6.888;2022-08-19T11:26:05;80.73;;;11.57;;
4049;SDS011;2039;50.894;6.888;2022-08-19T11:28:31;75.67;;;10.80;;
4049;SDS011;2039;50.894;6.888;2022-08-19T11:30:56;74.30;;;10.90;;
4049;SDS011;2039;50.894;6.888;2022-08-19T11:33:22;77.73;;;10.17;;
4049;SDS011;2039;50.894;6.888;2022-08-19T11:35:48;74.07;;;10.47;;
4049;SDS011;2039;50.894;6.888;2022-08-19T11:38:14;76.17;;;10.97;;
4049;SDS011;2039;50.894;6.888;2022-08-19T11:40:40;76.07;;;12.90;;
4049;SDS011;2039;50.894;6.888;2022-08-19T11:43:07;73.30;;;12.03;;
4049;SDS011;2039;50.894;6.888;2022-08-19T11:45:34;76.73;;;12.93;;
4049;SDS011;2039;50.894;6.888;2022-08-19T11:48:00;76.70;;;12.93;;
4049;SDS011;2039;50.894;6.888;2022-08-19T11:50:27;79.60;;;12.70;;
4049;SDS011;2039;50.894;6.888;2022-08-19T11:52:53;78.27;;;12.40;;
4049;SDS011;2039;50.894;6.888;2022-08-19T11:55:20;77.27;;;11.90;;
4049;SDS011;2039;50.894;6.888;2022-08-19T11:57:46;78.57;;;10.87;;
4049;SDS011;2039;50.894;6.888;2022-08-19T12:00:12;78.47;;;11.57;;
4049;SDS011;2039;50.894;6.888;2022-08-19T12:02:38;74.90;;;9.30;;
4049;SDS011;2039;50.894;6.888;2022-08-19T12:05:05;76.07;;;10.70;;
4049;SDS011;2039;50.894;6.888;2022-08-19T12:07:32;75.13;;;10.10;;
4049;SDS011;2039;50.894;6.888;2022-08-19T12:09:59;74.53;;;9.90;;
4049;SDS011;2039;50.894;6.888;2022-08-19T12:12:26;78.30;;;11.70;;
4049;SDS011;2039;50.894;6.888;2022-08-19T12:14:52;76.20;;;11.80;;
4049;SDS011;2039;50.894;6.888;2022-08-19T12:17:23;78.20;;;9.30;;
4049;SDS011;2039;50.894;6.888;2022-08-19T12:19:50;74.53;;;10.37;;
4049;SDS011;2039;50.894;6.888;2022-08-19T12:22:16;73.47;;;10.27;;
4049;SDS011;2039;50.894;6.888;2022-08-19T12:24:41;74.53;;;10.10;;
4049;SDS011;2039;50.894;6.888;2022-08-19T12:27:08;73.33;;;9.00;;
4049;SDS011;2039;50.894;6.888;2022-08-19T12:29:33;74.13;;;8.77;;
4049;SDS011;2039;50.894;6.888;2022-08-19T12:31:59;74.30;;;9.23;;
4049;SDS011;2039;50.894;6.888;2022-08-19T12:34:28;73.47;;;9.43;;
4049;SDS011;2039;50.894;6.888;2022-08-19T12:36:56;81.00;;;10.87;;
4049;SDS011;2039;50.894;6.888;2022-08-19T12:39:23;76.17;;;9.70;;
4049;SDS011;2039;50.894;6.888;2022-08-19T12:41:49;75.13;;;10.50;;
4049;SDS011;2039;50.894;6.888;2022-08-19T12:44:15;79.20;;;13.47;;
4049;SDS011;2039;50.894;6.888;2022-08-19T12:46:41;80.10;;;12.77;;
4049;SDS011;2039;50.894;6.888;2022-08-19T12:49:07;80.57;;;13.27;;
4049;SDS011;2039;50.894;6.888;2022-08-19T12:51:33;75.47;;;11.37;;
4049;SDS011;2039;50.894;6.888;2022-08-19T12:53:58;76.37;;;11.10;;
4049;SDS011;2039;50.894;6.888;2022-08-19T12:56:24;75.37;;;10.77;;
4049;SDS011;2039;50.894;6.888;2022-08-19T12:58:50;75.80;;;10.40;;
4049;SDS011;2039;50.894;6.888;2022-08-19T13:01:16;79.87;;;11.50;;
4049;SDS011;2039;50.894;6.888;2022-08-19T13:03:44;79.23;;;10.00;;
4049;SDS011;2039;50.894;6.888;2022-08-19T13:06:11;79.47;;;10.97;;
4049;SDS011;2039;50.894;6.888;2022-08-19T13:08:37;75.20;;;10.80;;
4049;SDS011;2039;50.894;6.888;2022-08-19T13:11:14;74.60;;;10.40;;
4049;SDS011;2039;50.894;6.888;2022-08-19T13:13:43;72.17;;;8.50;;
4049;SDS011;2039;50.894;6.888;2022-08-19T13:16:10;75.77;;;7.97;;
4049;SDS011;2039;50.894;6.888;2022-08-19T13:18:37;72.37;;;6.93;;
4049;SDS011;2039;50.894;6.888;2022-08-19T13:21:04;74.80;;;8.70;;
4049;SDS011;2039;50.894;6.888;2022-08-19T13:23:31;75.20;;;8.83;;
4049;SDS011;2039;50.894;6.888;2022-08-19T13:25:58;74.47;;;9.10;;
4049;SDS011;2039;50.894;6.888;2022-08-19T13:28:25;73.90;;;7.97;;
4049;SDS011;2039;50.894;6.888;2022-08-19T13:30:51;73.87;;;7.93;;
4049;SDS011;2039;50.894;6.888;2022-08-19T13:33:35;73.00;;;8.10;;
4049;SDS011;2039;50.894;6.888;2022-08-19T13:36:02;75.07;;;8.40;;
4049;SDS011;2039;50.894;6.888;2022-08-19T13:38:32;72.40;;;7.50;;
4049;SDS011;2039;50.894;6.888;2022-08-19T13:41:03;74.93;;;8.97;;
4049;SDS011;2039;50.894;6.888;2022-08-19T13:43:29;72.80;;;7.97;;
4049;SDS011;2039;50.894;6.888;2022-08-19T13:45:55;72.73;;;7.33;;
4049;SDS011;2039;50.894;6.888;2022-08-19T13:48:21;73.27;;;8.67;;
4049;SDS011;2039;50.894;6.888;2022-08-19T13:50:48;73.77;;;7.70;;
4049;SDS011;2039;50.894;6.888;2022-08-19T13:53:14;73.30;;;8.60;;
4049;SDS011;2039;50.894;6.888;2022-08-19T13:55:41;73.73;;;8.80;;
4049;SDS011;2039;50.894;6.888;2022-08-19T13:58:08;75.30;;;9.00;;
4049;SDS011;2039;50.894;6.888;2022-08-19T14:00:36;71.97;;;8.20;;
4049;SDS011;2039;50.894;6.888;2022-08-19T14:03:04;74.67;;;9.30;;
4049;SDS011;2039;50.894;6.888;2022-08-19T14:05:31;72.63;;;8.70;;
4049;SDS011;2039;50.894;6.888;2022-08-19T14:07:56;74.87;;;8.77;;
4049;SDS011;2039;50.894;6.888;2022-08-19T14:10:23;75.50;;;9.40;;
4049;SDS011;2039;50.894;6.888;2022-08-19T14:12:54;73.80;;;8.03;;
4049;SDS011;2039;50.894;6.888;2022-08-19T14:15:23;72.10;;;7.70;;
4049;SDS011;2039;50.894;6.888;2022-08-19T14:17:49;72.90;;;7.20;;
4049;SDS011;2039;50.894;6.888;2022-08-19T14:20:15;74.37;;;9.23;;
4049;SDS011;2039;50.894;6.888;2022-08-19T14:22:41;73.00;;;9.10;;
4049;SDS011;2039;50.894;6.888;2022-08-19T14:25:09;73.70;;;7.77;;
4049;SDS011;2039;50.894;6.888;2022-08-19T14:27:37;74.70;;;9.30;;
4049;SDS011;2039;50.894;6.888;2022-08-19T14:30:04;72.97;;;8.63;;
4049;SDS011;2039;50.894;6.888;2022-08-19T14:32:31;73.93;;;8.53;;
4049;SDS011;2039;50.894;6.888;2022-08-19T14:34:59;71.40;;;7.70;;
4049;SDS011;2039;50.894;6.888;2022-08-19T14:37:24;71.00;;;7.17;;
4049;SDS011;2039;50.894;6.888;2022-08-19T14:39:50;71.33;;;5.60;;
4049;SDS011;2039;50.894;6.888;2022-08-19T14:42:16;69.70;;;6.20;;
4049;SDS011;2039;50.894;6.888;2022-08-19T14:44:42;69.30;;;5.27;;
4049;SDS011;2039;50.894;6.888;2022-08-19T14:47:08;69.80;;;5.13;;
4049;SDS011;2039;50.894;6.888;2022-08-19T14:49:34;70.73;;;5.17;;
4049;SDS011;2039;50.894;6.888;2022-08-19T14:52:00;71.67;;;5.20;;
4049;SDS011;2039;50.894;6.888;2022-08-19T14:54:26;70.70;;;5.43;;
4049;SDS011;2039;50.894;6.888;2022-08-19T14:56:51;68.83;;;4.40;;
4049;SDS011;2039;50.894;6.888;2022-08-19T14:59:17;78.07;;;5.20;;
4049;SDS011;2039;50.894;6.888;2022-08-19T15:01:43;70.23;;;5.10;;
4049;SDS011;2039;50.894;6.888;2022-08-19T15:04:09;70.40;;;4.00;;
4049;SDS011;2039;50.894;6.888;2022-08-19T15:06:35;69.83;;;3.93;;